EGOV - Valley
Distance from station: E 5mi, 14km
Updated: 10/21/2017 4:50am
Light rain, Mostly cloudy
Light rain, Mostly cloudy
 Wind from SSW
Wind: SSW 48 mph , 78 km/h, Gust: 62 mph , 100 km/h
Temperature: 55°F , 13°C
Dew Point: 54°F , 12°C
Humidity: 94%
Barometer: 29 inHg , 982 hPa
Summary: Light Rain
Clouds: Mostly Cloudy
Visibility: 2 miles , 4 km
Cloud details: Mostly Cloudy 1400 ft
Mostly Cloudy 2100 ft
2017/10/21 11:50 EGOV 211150Z AUTO 20042G54KT 3600 -RA BKN014/// BKN021/// 13/12 Q0982